Time;durP1;ratioP1;P1;durP2;ratioP2;P2;SDS_P1;SDS_P2;PMS_P1;PMS_P2;Temp;Humidity;BMP_temperature;BMP_pressure;BME280_temperature;BME280_humidity;BME280_pressure;Samples;Min_cycle;Max_cycle;Signal;HPM_P1;HPM_P2
2022/05/13 00:01:53;;;;;;;7.70;1.95;;;13.70;99.90;;;;;;5016598;28;20052;-73
2022/05/13 00:04:19;;;;;;;6.32;1.85;;;13.60;99.90;;;;;;5016474;28;20052;-73
2022/05/13 00:06:45;;;;;;;5.30;2.03;;;13.60;99.90;;;;;;5035230;28;20048;-72
2022/05/13 00:09:11;;;;;;;5.93;1.73;;;13.60;99.90;;;;;;5019630;28;20521;-75
2022/05/13 00:11:36;;;;;;;10.20;2.35;;;13.60;99.90;;;;;;5035674;28;20702;-76
2022/05/13 00:14:03;;;;;;;8.02;2.30;;;13.60;99.90;;;;;;5021744;28;20102;-73
2022/05/13 00:16:28;;;;;;;6.30;2.00;;;13.50;99.90;;;;;;5016242;28;20108;-74
2022/05/13 00:18:54;;;;;;;10.68;2.17;;;13.50;99.90;;;;;;5017326;28;21059;-76
2022/05/13 00:21:20;;;;;;;4.40;1.77;;;13.50;99.90;;;;;;5014036;28;20079;-74
2022/05/13 00:23:46;;;;;;;9.30;2.55;;;13.50;99.90;;;;;;5020385;28;20051;-73
2022/05/13 00:26:12;;;;;;;6.97;2.17;;;13.40;99.90;;;;;;5018810;28;20033;-76
2022/05/13 00:28:37;;;;;;;7.85;2.15;;;13.40;99.90;;;;;;5038361;28;20557;-72
2022/05/13 00:31:04;;;;;;;7.30;1.80;;;13.40;99.90;;;;;;5017509;28;20029;-73
2022/05/13 00:33:31;;;;;;;6.57;1.90;;;13.30;99.90;;;;;;5033762;28;20110;-73
2022/05/13 00:35:57;;;;;;;7.78;2.00;;;13.30;99.90;;;;;;5018902;28;20078;-77
2022/05/13 00:38:23;;;;;;;6.05;1.90;;;13.20;99.90;;;;;;5037161;28;20034;-73
2022/05/13 00:40:48;;;;;;;4.72;1.85;;;13.20;99.90;;;;;;5033838;28;20409;-76
2022/05/13 00:43:35;;;;;;;6.18;2.22;;;13.20;99.90;;;;;;5018621;28;20045;-76
2022/05/13 00:46:03;;;;;;;6.32;2.22;;;13.20;99.90;;;;;;5035214;28;20107;-75
2022/05/13 00:48:29;;;;;;;7.03;1.85;;;13.10;99.90;;;;;;5021016;28;20144;-73
2022/05/13 00:50:55;;;;;;;5.38;1.65;;;13.10;99.90;;;;;;5017185;28;20191;-73
2022/05/13 00:53:22;;;;;;;8.68;2.28;;;13.10;99.90;;;;;;5017769;28;20028;-73
2022/05/13 00:55:48;;;;;;;9.95;2.25;;;13.10;99.90;;;;;;5002351;28;20377;-73
2022/05/13 00:58:17;;;;;;;8.32;2.08;;;13.10;99.90;;;;;;5017370;28;20038;-73
2022/05/13 01:00:43;;;;;;;8.02;2.55;;;13.10;99.90;;;;;;5035154;28;20051;-73
2022/05/13 01:03:11;;;;;;;6.00;2.03;;;13.10;99.90;;;;;;5000105;28;20024;-73
2022/05/13 01:05:38;;;;;;;9.57;2.30;;;13.10;99.90;;;;;;5034931;28;20033;-73
2022/05/13 01:08:07;;;;;;;7.10;1.67;;;13.10;99.90;;;;;;5036455;28;20034;-73
2022/05/13 01:10:35;;;;;;;5.70;2.13;;;13.10;99.90;;;;;;5032992;28;20102;-75
2022/05/13 01:13:07;;;;;;;6.05;2.28;;;13.10;99.90;;;;;;5030516;28;20040;-75
2022/05/13 01:15:39;;;;;;;8.15;2.60;;;13.10;99.90;;;;;;5033441;28;20029;-75
2022/05/13 01:18:06;;;;;;;8.55;2.03;;;13.10;99.90;;;;;;5036399;28;20465;-75
2022/05/13 01:20:42;;;;;;;5.85;2.10;;;13.10;99.90;;;;;;5037365;28;20029;-73
2022/05/13 01:23:15;;;;;;;6.68;2.38;;;13.10;99.90;;;;;;5016818;28;20148;-73
2022/05/13 01:25:50;;;;;;;9.93;2.85;;;13.10;99.90;;;;;;5016975;28;20025;-75
2022/05/13 01:28:20;;;;;;;5.60;2.10;;;13.10;99.90;;;;;;5036328;28;20045;-76
2022/05/13 01:30:49;;;;;;;5.18;2.03;;;13.10;99.90;;;;;;5002217;28;20034;-76
2022/05/13 01:33:16;;;;;;;8.57;2.85;;;13.10;99.90;;;;;;5018089;28;20494;-73
2022/05/13 01:35:44;;;;;;;7.78;2.08;;;13.00;99.90;;;;;;5036250;28;20456;-75
2022/05/13 01:38:11;;;;;;;8.02;2.20;;;13.00;99.90;;;;;;5033669;28;20025;-72
2022/05/13 01:40:37;;;;;;;5.40;1.80;;;13.00;99.90;;;;;;5034042;28;20500;-72
2022/05/13 01:43:04;;;;;;;6.78;2.30;;;12.90;99.90;;;;;;5032534;28;20025;-73
2022/05/13 01:45:30;;;;;;;7.30;2.60;;;13.00;99.90;;;;;;5035973;28;20088;-74
2022/05/13 01:47:55;;;;;;;8.30;2.65;;;13.00;99.90;;;;;;5033446;28;20025;-77
2022/05/13 01:50:23;;;;;;;6.82;2.33;;;12.90;99.90;;;;;;5015835;28;20091;-74
2022/05/13 01:52:49;;;;;;;9.65;2.88;;;12.90;99.90;;;;;;5032110;28;20037;-74
2022/05/13 01:55:15;;;;;;;7.43;2.38;;;12.90;99.90;;;;;;5020932;28;20448;-77
2022/05/13 01:57:41;;;;;;;7.07;2.40;;;12.90;99.90;;;;;;5017846;28;20489;-74
2022/05/13 02:00:07;;;;;;;5.53;2.15;;;12.90;99.90;;;;;;5025294;28;20025;-72
2022/05/13 02:03:44;;;;;;;7.43;2.60;;;12.80;99.90;;;;;;5018839;28;20030;-72
2022/05/13 02:05:21;;;;;;;6.97;2.72;;;12.80;99.90;;;;;;5039685;28;20099;-76
2022/05/13 02:07:46;;;;;;;5.55;1.90;;;12.80;99.90;;;;;;5020772;28;20473;-73
2022/05/13 02:10:12;;;;;;;6.72;2.40;;;12.80;99.90;;;;;;5045253;28;20040;-74
2022/05/13 02:12:38;;;;;;;7.53;2.30;;;12.80;99.90;;;;;;5026578;28;20076;-74
2022/05/13 02:15:05;;;;;;;8.25;2.13;;;12.70;99.90;;;;;;5040719;28;20025;-76
2022/05/13 02:17:31;;;;;;;7.07;2.00;;;12.70;99.90;;;;;;5040400;28;20080;-77
2022/05/13 02:19:57;;;;;;;6.57;2.25;;;12.70;99.90;;;;;;5018039;28;20028;-73
2022/05/13 02:22:23;;;;;;;5.05;2.10;;;12.70;99.90;;;;;;5039054;28;20033;-74
2022/05/13 02:24:48;;;;;;;4.85;2.00;;;12.70;99.90;;;;;;5003529;28;20033;-73
2022/05/13 02:27:14;;;;;;;7.63;2.20;;;12.60;99.90;;;;;;5039047;28;20065;-74
2022/05/13 02:29:39;;;;;;;6.25;2.10;;;12.60;99.90;;;;;;5019960;28;20032;-76
2022/05/13 02:32:05;;;;;;;8.25;2.30;;;12.60;99.90;;;;;;5036792;28;20039;-73
2022/05/13 02:34:31;;;;;;;8.63;2.00;;;12.60;99.90;;;;;;5039684;28;20026;-73
2022/05/13 02:36:57;;;;;;;4.68;1.88;;;12.60;99.90;;;;;;5040409;28;20017;-76
2022/05/13 02:39:22;;;;;;;8.07;2.45;;;12.50;99.90;;;;;;5005438;28;20124;-75
2022/05/13 02:41:49;;;;;;;7.82;2.58;;;12.50;99.90;;;;;;5021749;28;20527;-76
2022/05/13 02:44:14;;;;;;;7.25;2.30;;;12.50;99.90;;;;;;5022900;28;20886;-78
2022/05/13 02:46:41;;;;;;;5.82;2.90;;;12.50;99.90;;;;;;5019804;28;20109;-73
2022/05/13 02:49:07;;;;;;;6.82;2.58;;;12.40;99.90;;;;;;5021680;28;20378;-75
2022/05/13 02:51:33;;;;;;;9.98;3.17;;;12.40;99.90;;;;;;5003663;28;20083;-75
2022/05/13 02:53:58;;;;;;;7.20;2.42;;;12.40;99.90;;;;;;5022118;28;20037;-76
2022/05/13 02:56:25;;;;;;;7.45;2.42;;;12.40;99.90;;;;;;5019625;28;20068;-73
2022/05/13 02:58:51;;;;;;;6.28;2.55;;;12.40;99.90;;;;;;5020392;28;20060;-76
2022/05/13 03:01:18;;;;;;;6.72;2.47;;;12.40;99.90;;;;;;5032929;28;20068;-73
2022/05/13 03:03:46;;;;;;;8.88;3.00;;;12.40;99.90;;;;;;5036374;28;20180;-76
2022/05/13 03:06:12;;;;;;;12.95;3.47;;;12.40;99.90;;;;;;5015884;28;20068;-73
2022/05/13 03:08:38;;;;;;;6.05;2.70;;;12.40;99.90;;;;;;5018729;28;20508;-76
2022/05/13 03:11:06;;;;;;;6.70;2.72;;;12.40;99.90;;;;;;5022478;28;20124;-73
2022/05/13 03:13:33;;;;;;;7.78;2.58;;;12.40;99.90;;;;;;5037844;28;20037;-73
2022/05/13 03:16:10;;;;;;;7.22;2.72;;;12.50;99.90;;;;;;5034575;28;20104;-75
2022/05/13 03:18:38;;;;;;;9.32;3.20;;;12.50;99.90;;;;;;5023029;28;20025;-76
2022/05/13 03:21:05;;;;;;;11.43;3.25;;;12.50;99.90;;;;;;5037086;28;20079;-75
2022/05/13 03:23:31;;;;;;;8.68;2.70;;;12.60;99.90;;;;;;5016989;28;20107;-74
2022/05/13 03:25:57;;;;;;;7.30;2.83;;;12.60;99.90;;;;;;5037245;28;20106;-75
2022/05/13 03:28:24;;;;;;;8.15;2.78;;;12.70;99.90;;;;;;5002287;28;20044;-76
2022/05/13 03:30:50;;;;;;;8.15;2.85;;;12.70;99.90;;;;;;5040101;28;20053;-74
2022/05/13 03:33:17;;;;;;;6.97;3.10;;;12.80;99.90;;;;;;5021385;28;20037;-76
2022/05/13 03:35:43;;;;;;;5.45;2.63;;;12.80;99.90;;;;;;5001654;28;20018;-72
2022/05/13 03:38:09;;;;;;;9.38;3.63;;;12.80;99.90;;;;;;5034120;28;20496;-75
2022/05/13 03:40:36;;;;;;;6.70;3.53;;;12.90;99.90;;;;;;5019328;28;20039;-73
2022/05/13 03:43:03;;;;;;;9.88;3.35;;;12.80;99.90;;;;;;5016321;28;20531;-76
2022/05/13 03:45:30;;;;;;;8.00;3.25;;;12.90;99.90;;;;;;5004837;28;20037;-77
2022/05/13 03:47:56;;;;;;;8.23;3.08;;;12.80;99.90;;;;;;5020476;28;20032;-77
2022/05/13 03:50:22;;;;;;;7.50;2.80;;;12.90;99.90;;;;;;5019987;28;20025;-75
2022/05/13 03:52:48;;;;;;;6.93;3.20;;;12.90;99.90;;;;;;5032174;28;20522;-73
2022/05/13 03:55:13;;;;;;;9.00;2.92;;;12.90;99.90;;;;;;5033048;28;20063;-76
2022/05/13 03:57:39;;;;;;;4.60;2.65;;;12.90;99.90;;;;;;5036786;28;20025;-78
2022/05/13 04:00:07;;;;;;;7.15;2.90;;;12.90;99.90;;;;;;5020391;28;20075;-76
2022/05/13 04:02:33;;;;;;;9.63;3.22;;;12.90;99.90;;;;;;5036021;28;20067;-74
2022/05/13 04:10:27;;;;;;;7.03;3.00;;;13.00;99.90;;;;;;5032695;28;20116;-74
2022/05/13 04:18:22;;;;;;;7.05;3.53;;;13.00;99.90;;;;;;5033840;28;20111;-76
2022/05/13 04:20:47;;;;;;;12.55;3.83;;;13.00;99.90;;;;;;5019364;28;20505;-74
2022/05/13 04:23:16;;;;;;;9.45;3.92;;;13.00;99.90;;;;;;5016574;28;20040;-79
2022/05/13 04:25:41;;;;;;;7.03;3.22;;;13.10;99.90;;;;;;5020042;28;20309;-76
2022/05/13 04:28:07;;;;;;;8.70;3.25;;;13.10;99.90;;;;;;5004824;28;20025;-77
2022/05/13 04:30:32;;;;;;;9.40;3.13;;;13.10;99.90;;;;;;5035504;28;20108;-74
2022/05/13 04:32:58;;;;;;;9.15;3.60;;;13.20;99.90;;;;;;5021368;28;20041;-74
2022/05/13 04:35:25;;;;;;;8.57;3.13;;;13.20;99.90;;;;;;4998962;28;20025;-73
2022/05/13 04:37:50;;;;;;;11.10;3.55;;;13.20;99.90;;;;;;5030549;28;20473;-74
2022/05/13 04:40:16;;;;;;;7.82;3.47;;;13.20;99.90;;;;;;5031692;28;20067;-74
2022/05/13 04:42:51;;;;;;;8.27;3.53;;;13.30;99.90;;;;;;5035287;28;20393;-76
2022/05/13 04:45:26;;;;;;;8.45;3.20;;;13.30;99.90;;;;;;5018575;28;20028;-76
2022/05/13 04:48:21;;;;;;;9.02;3.47;;;13.30;99.90;;;;;;5034922;28;20107;-78
2022/05/13 04:50:53;;;;;;;9.68;3.53;;;13.30;99.90;;;;;;5021415;28;20068;-77
2022/05/13 04:53:22;;;;;;;7.43;2.72;;;13.40;99.90;;;;;;5020452;28;20470;-77
2022/05/13 04:55:49;;;;;;;7.72;3.10;;;13.40;99.90;;;;;;5019360;28;20033;-76
2022/05/13 04:58:16;;;;;;;8.10;3.13;;;13.30;99.90;;;;;;5014494;28;20021;-78
2022/05/13 05:00:42;;;;;;;7.30;2.83;;;13.30;99.90;;;;;;5013647;28;20025;-74
2022/05/13 05:03:09;;;;;;;7.18;2.97;;;13.40;99.90;;;;;;5030139;28;20034;-76
2022/05/13 05:05:34;;;;;;;6.68;2.75;;;13.30;99.90;;;;;;5006871;28;20025;-73
2022/05/13 05:08:01;;;;;;;9.48;3.28;;;13.30;99.90;;;;;;5017916;28;20515;-78
2022/05/13 05:10:27;;;;;;;8.23;3.03;;;13.30;99.90;;;;;;5032686;28;20041;-76
2022/05/13 05:12:56;;;;;;;9.75;3.25;;;13.40;99.90;;;;;;5031696;28;20084;-77
2022/05/13 05:15:23;;;;;;;7.05;3.13;;;13.40;99.90;;;;;;5029203;28;20159;-73
2022/05/13 05:17:50;;;;;;;6.80;2.90;;;13.30;99.90;;;;;;5013595;28;20029;-75
2022/05/13 05:20:17;;;;;;;6.93;2.63;;;13.30;99.90;;;;;;5011550;28;20030;-76
2022/05/13 05:22:46;;;;;;;7.75;3.28;;;13.30;99.90;;;;;;5031868;28;20036;-74
2022/05/13 05:25:15;;;;;;;5.53;3.05;;;13.30;99.90;;;;;;5007618;28;20047;-75
2022/05/13 05:27:41;;;;;;;8.52;3.00;;;13.40;99.90;;;;;;4989749;28;20121;-73
2022/05/13 05:30:10;;;;;;;7.00;3.17;;;13.30;99.90;;;;;;5032637;28;20472;-72
2022/05/13 05:32:37;;;;;;;8.15;3.20;;;13.20;99.90;;;;;;5029358;28;20087;-77
2022/05/13 05:35:03;;;;;;;9.82;2.95;;;13.20;99.90;;;;;;5016887;28;20029;-74
2022/05/13 05:37:29;;;;;;;7.00;3.25;;;13.20;99.90;;;;;;5013373;28;20101;-74
2022/05/13 05:39:54;;;;;;;8.10;2.95;;;13.20;99.90;;;;;;5031781;28;20107;-78
2022/05/13 05:42:20;;;;;;;9.52;3.45;;;13.20;99.90;;;;;;5012122;28;20037;-75
2022/05/13 05:44:46;;;;;;;6.53;3.00;;;13.20;99.90;;;;;;5034340;28;20432;-78
2022/05/13 05:47:11;;;;;;;8.70;2.88;;;13.30;99.90;;;;;;5000110;28;20083;-78
2022/05/13 05:49:37;;;;;;;6.55;2.47;;;13.20;99.90;;;;;;5022980;28;20053;-74
2022/05/13 05:52:03;;;;;;;8.55;3.10;;;13.20;99.90;;;;;;5022555;28;20405;-75
2022/05/13 05:57:15;;;;;;;7.80;2.88;;;13.30;99.90;;;;;;5017443;28;20025;-75
2022/05/13 05:59:43;;;;;;;8.43;3.40;;;13.40;99.90;;;;;;5040264;28;20030;-76
2022/05/13 06:02:09;;;;;;;5.78;2.53;;;13.40;99.90;;;;;;5018052;28;20113;-76
2022/05/13 06:04:36;;;;;;;7.22;2.80;;;13.40;99.90;;;;;;4999265;28;20474;-76
2022/05/13 06:07:04;;;;;;;7.38;3.40;;;13.40;99.90;;;;;;5021661;28;20378;-76
2022/05/13 06:09:30;;;;;;;8.02;2.85;;;13.50;99.90;;;;;;5037203;28;20469;-76
2022/05/13 06:11:56;;;;;;;8.40;2.85;;;13.60;99.90;;;;;;5020534;28;20049;-76
2022/05/13 06:14:22;;;;;;;7.05;2.83;;;13.70;99.90;;;;;;5037276;28;20375;-76
2022/05/13 06:16:48;;;;;;;6.75;3.13;;;13.60;99.90;;;;;;5027723;28;20026;-75
2022/05/13 06:19:15;;;;;;;9.40;3.40;;;13.60;99.90;;;;;;5022585;28;20075;-75
2022/05/13 06:21:42;;;;;;;9.85;3.20;;;13.60;99.90;;;;;;5016914;28;20045;-76
2022/05/13 06:24:08;;;;;;;9.88;3.83;;;13.50;99.90;;;;;;5026120;28;20021;-75
2022/05/13 06:26:34;;;;;;;14.05;3.80;;;13.50;99.90;;;;;;5024646;28;20107;-76
2022/05/13 06:29:02;;;;;;;11.40;3.38;;;13.50;99.90;;;;;;5049464;28;20032;-75
2022/05/13 06:31:28;;;;;;;8.15;3.38;;;13.50;99.90;;;;;;5000944;28;20033;-73
2022/05/13 06:33:53;;;;;;;10.38;3.10;;;13.40;99.90;;;;;;5023552;28;20025;-75
2022/05/13 06:36:19;;;;;;;7.53;2.65;;;13.40;99.90;;;;;;5022661;28;20493;-76
2022/05/13 06:38:46;;;;;;;7.85;2.92;;;13.40;99.90;;;;;;5016726;28;20457;-76
2022/05/13 06:41:12;;;;;;;8.65;3.28;;;13.40;99.90;;;;;;5028608;28;20448;-76
2022/05/13 06:43:37;;;;;;;10.45;3.65;;;13.40;99.90;;;;;;5045631;28;20024;-76
2022/05/13 06:46:03;;;;;;;11.50;3.40;;;13.40;99.90;;;;;;5040249;28;20029;-76
2022/05/13 06:48:29;;;;;;;8.88;3.05;;;13.40;99.90;;;;;;5002777;28;20041;-77
2022/05/13 06:50:54;;;;;;;7.82;3.42;;;13.40;99.90;;;;;;5018480;28;20036;-76
2022/05/13 06:53:22;;;;;;;7.00;3.42;;;13.40;99.90;;;;;;5020097;28;20045;-76
2022/05/13 06:55:49;;;;;;;10.32;3.42;;;13.40;99.90;;;;;;5007871;28;20040;-76
2022/05/13 06:58:16;;;;;;;17.83;3.47;;;13.50;99.90;;;;;;5042846;28;20052;-76
2022/05/13 07:00:44;;;;;;;5.57;3.22;;;13.50;99.90;;;;;;5041539;28;20084;-74
2022/05/13 07:03:16;;;;;;;10.65;3.55;;;13.50;99.90;;;;;;5039027;28;20038;-78
2022/05/13 07:05:42;;;;;;;10.15;3.20;;;13.50;99.90;;;;;;5002584;28;20029;-74
2022/05/13 07:08:10;;;;;;;7.18;3.55;;;13.50;99.90;;;;;;5021469;28;20097;-74
2022/05/13 07:10:39;;;;;;;9.48;3.33;;;13.50;99.90;;;;;;5021488;28;20067;-76
2022/05/13 07:13:09;;;;;;;9.10;3.67;;;13.50;99.90;;;;;;5017227;28;20065;-76
2022/05/13 07:15:34;;;;;;;7.60;3.00;;;13.60;99.90;;;;;;5018290;28;20036;-76
2022/05/13 07:18:00;;;;;;;9.50;4.25;;;13.50;99.90;;;;;;5007511;28;20021;-75
2022/05/13 07:20:27;;;;;;;8.85;3.42;;;13.60;99.90;;;;;;5023107;28;20075;-76
2022/05/13 07:22:57;;;;;;;8.40;3.28;;;13.60;99.90;;;;;;5035048;28;20493;-76
2022/05/13 07:25:23;;;;;;;10.98;3.70;;;13.70;99.90;;;;;;5022277;28;20056;-76
2022/05/13 07:27:49;;;;;;;6.85;3.33;;;13.70;99.90;;;;;;5038752;28;20025;-74
2022/05/13 07:30:15;;;;;;;8.63;3.80;;;13.70;99.90;;;;;;5038188;28;20034;-74
2022/05/13 07:32:41;;;;;;;7.15;3.60;;;13.90;99.90;;;;;;5032157;28;20025;-74
2022/05/13 07:35:08;;;;;;;8.68;4.22;;;13.80;99.90;;;;;;5033656;28;20029;-76
2022/05/13 07:37:37;;;;;;;9.07;3.72;;;13.90;99.90;;;;;;5005529;28;20075;-74
2022/05/13 07:42:49;;;;;;;8.52;3.40;;;14.00;99.90;;;;;;5021263;28;20036;-76
2022/05/13 07:45:15;;;;;;;9.52;3.40;;;14.00;99.90;;;;;;5034753;28;20037;-76
2022/05/13 07:47:44;;;;;;;8.00;3.22;;;14.00;99.90;;;;;;5015857;28;20380;-75
2022/05/13 07:50:11;;;;;;;6.00;3.25;;;14.00;99.90;;;;;;5019387;28;20041;-74
2022/05/13 07:52:40;;;;;;;7.85;3.72;;;14.10;99.90;;;;;;5034531;28;20026;-74
2022/05/13 07:55:07;;;;;;;9.90;3.70;;;14.20;99.90;;;;;;5020059;28;20037;-77
2022/05/13 07:57:33;;;;;;;12.38;4.32;;;14.30;99.90;;;;;;5020473;28;20025;-76
2022/05/13 08:02:43;;;;;;;14.07;3.38;;;14.40;99.90;;;;;;5040106;28;20113;-76
2022/05/13 08:05:09;;;;;;;6.95;3.40;;;14.40;99.90;;;;;;5039683;28;20065;-76
2022/05/13 08:07:35;;;;;;;9.23;4.05;;;14.50;99.90;;;;;;5034575;28;20101;-74
2022/05/13 08:10:01;;;;;;;11.20;4.32;;;14.50;99.90;;;;;;5031950;28;20035;-76
2022/05/13 08:12:28;;;;;;;10.52;4.32;;;14.50;99.90;;;;;;5014453;28;20021;-75
2022/05/13 08:14:53;;;;;;;9.57;4.10;;;14.60;99.90;;;;;;5018583;28;20033;-75
2022/05/13 08:17:20;;;;;;;12.55;3.90;;;14.60;99.90;;;;;;5024292;28;20029;-74
2022/05/13 08:19:45;;;;;;;10.90;4.25;;;14.60;99.90;;;;;;5015406;28;20504;-73
2022/05/13 08:22:11;;;;;;;12.57;4.47;;;14.60;99.90;;;;;;5021243;28;20049;-74
2022/05/13 08:24:37;;;;;;;11.65;4.43;;;14.60;99.90;;;;;;4999695;28;20056;-75
2022/05/13 08:27:03;;;;;;;13.48;4.43;;;14.60;99.90;;;;;;5003065;28;20091;-75
2022/05/13 08:29:28;;;;;;;15.73;3.90;;;14.60;99.90;;;;;;5038204;28;20167;-74
2022/05/13 08:31:54;;;;;;;12.35;4.38;;;14.50;99.90;;;;;;5017812;28;20037;-73
2022/05/13 08:34:20;;;;;;;13.75;4.45;;;14.50;99.90;;;;;;5035490;28;20022;-73
2022/05/13 08:36:46;;;;;;;12.35;4.32;;;14.50;99.90;;;;;;5019713;28;20038;-74
2022/05/13 08:39:12;;;;;;;12.02;4.03;;;14.50;99.90;;;;;;5036109;28;20030;-74
2022/05/13 08:41:57;;;;;;;13.25;4.32;;;14.50;99.90;;;;;;5017624;28;20412;-74
2022/05/13 08:44:25;;;;;;;12.43;4.32;;;14.70;99.90;;;;;;5035503;28;20026;-74
2022/05/13 08:47:00;;;;;;;13.43;3.90;;;14.90;99.90;;;;;;5015352;28;20017;-74
2022/05/13 08:49:35;;;;;;;12.60;3.95;;;15.10;99.90;;;;;;5032589;28;20028;-75
2022/05/13 08:55:30;;;;;;;10.20;4.30;;;15.20;99.90;;;;;;5036166;28;20032;-76
2022/05/13 08:57:59;;;;;;;12.73;4.20;;;15.10;99.90;;;;;;5018010;28;20021;-78
2022/05/13 09:00:47;;;;;;;8.77;4.10;;;15.20;99.90;;;;;;5037818;28;20048;-76
2022/05/13 09:03:27;;;;;;;11.48;4.60;;;15.20;99.90;;;;;;5017228;28;20071;-76
2022/05/13 09:06:01;;;;;;;9.52;3.88;;;15.30;99.90;;;;;;5037876;28;20461;-76
2022/05/13 09:08:27;;;;;;;13.93;5.15;;;15.40;99.90;;;;;;5039062;28;20361;-76
2022/05/13 09:11:07;;;;;;;15.73;5.32;;;15.50;99.90;;;;;;5003319;28;20034;-75
2022/05/13 09:14:05;;;;;;;11.70;4.57;;;15.60;99.90;;;;;;5020607;28;20037;-76
2022/05/13 09:16:52;;;;;;;12.73;4.20;;;15.60;99.90;;;;;;5037189;28;20025;-74
2022/05/13 09:19:48;;;;;;;11.57;4.20;;;15.90;99.90;;;;;;5030431;28;20022;-77
2022/05/13 09:22:14;;;;;;;8.52;4.25;;;16.10;99.90;;;;;;4995630;28;20437;-74
2022/05/13 09:24:41;;;;;;;10.65;4.45;;;16.20;99.90;;;;;;5031274;28;20032;-75
2022/05/13 09:27:07;;;;;;;10.13;4.30;;;16.40;99.90;;;;;;5040647;28;20060;-77
2022/05/13 09:29:44;;;;;;;14.98;5.20;;;16.50;99.90;;;;;;4995957;28;20501;-75
2022/05/13 09:32:28;;;;;;;14.10;4.40;;;16.60;99.90;;;;;;4994692;28;20029;-77
2022/05/13 09:35:05;;;;;;;12.85;4.57;;;16.90;99.80;;;;;;5016575;28;20021;-77
2022/05/13 09:37:43;;;;;;;11.63;4.05;;;17.10;99.20;;;;;;5034828;28;20026;-74
2022/05/13 09:40:22;;;;;;;19.38;4.55;;;17.10;98.90;;;;;;5037158;28;20025;-73
2022/05/13 09:42:51;;;;;;;11.52;3.90;;;16.90;98.60;;;;;;5017442;28;20037;-77
2022/05/13 09:45:25;;;;;;;11.85;3.75;;;16.90;98.80;;;;;;5016125;28;20447;-77
2022/05/13 09:48:06;;;;;;;11.45;3.95;;;17.00;98.50;;;;;;5021226;28;20030;-75
2022/05/13 09:50:35;;;;;;;12.88;3.97;;;17.00;98.30;;;;;;5013543;28;20481;-77
2022/05/13 09:53:20;;;;;;;15.23;5.07;;;17.10;98.50;;;;;;4999872;28;20033;-76
2022/05/13 09:55:48;;;;;;;10.15;3.67;;;16.90;98.80;;;;;;5035440;28;20017;-75
2022/05/13 09:58:18;;;;;;;11.85;4.43;;;17.20;98.70;;;;;;5013644;28;20371;-77
2022/05/13 10:00:47;;;;;;;13.38;5.15;;;17.30;98.50;;;;;;5022653;28;20435;-76
2022/05/13 10:03:25;;;;;;;9.63;3.65;;;17.30;98.50;;;;;;5015590;28;20033;-74
2022/05/13 10:06:08;;;;;;;16.17;5.20;;;17.30;98.20;;;;;;5030715;28;20397;-74
2022/05/13 10:08:49;;;;;;;12.23;3.95;;;17.20;98.10;;;;;;5035733;28;20053;-74
2022/05/13 10:14:31;;;;;;;9.88;3.60;;;17.10;97.90;;;;;;5036837;28;20044;-77
2022/05/13 10:17:17;;;;;;;10.35;4.45;;;17.20;98.00;;;;;;5022750;28;20029;-76
2022/05/13 10:19:55;;;;;;;10.82;4.03;;;17.30;97.90;;;;;;5018735;28;20025;-76
2022/05/13 10:22:46;;;;;;;13.27;4.93;;;17.00;98.00;;;;;;5024053;28;20029;-76
2022/05/13 10:25:46;;;;;;;12.18;4.50;;;16.80;98.20;;;;;;5043357;28;20575;-76
2022/05/13 10:28:15;;;;;;;14.05;4.45;;;16.50;99.30;;;;;;5022045;28;20048;-75
2022/05/13 10:30:49;;;;;;;32.80;7.53;;;16.10;99.90;;;;;;5017719;28;20025;-76
2022/05/13 10:33:23;;;;;;;13.52;4.60;;;15.70;99.90;;;;;;5017030;28;20086;-73
2022/05/13 10:35:58;;;;;;;12.95;5.50;;;15.00;99.90;;;;;;5008833;28;20052;-73
2022/05/13 10:38:37;;;;;;;14.80;4.93;;;14.30;99.90;;;;;;5034291;28;20017;-74
2022/05/13 10:41:35;;;;;;;10.40;4.80;;;14.00;99.90;;;;;;5036176;28;20079;-74
2022/05/13 10:44:37;;;;;;;7.28;4.10;;;13.90;99.90;;;;;;5009817;28;20026;-75
2022/05/13 10:47:10;;;;;;;8.73;4.30;;;13.80;99.90;;;;;;5017363;28;20115;-74
2022/05/13 10:49:39;;;;;;;7.90;2.97;;;14.00;99.90;;;;;;5034087;28;20382;-75
2022/05/13 10:52:11;;;;;;;7.95;4.82;;;14.30;99.90;;;;;;5037748;28;20036;-75
2022/05/13 10:55:05;;;;;;;9.85;4.25;;;14.50;99.90;;;;;;5013501;28;20025;-76
2022/05/13 10:57:54;;;;;;;9.98;4.13;;;14.80;99.90;;;;;;5027638;28;20033;-74
2022/05/13 11:00:30;;;;;;;7.30;3.70;;;15.00;99.90;;;;;;5010168;28;20417;-75
2022/05/13 11:03:12;;;;;;;6.45;3.80;;;15.10;99.90;;;;;;4999761;28;20024;-75
2022/05/13 11:05:57;;;;;;;9.93;4.63;;;15.20;99.90;;;;;;5032600;28;20060;-75
2022/05/13 11:08:55;;;;;;;8.90;3.80;;;15.20;99.90;;;;;;5031970;28;20737;-74
2022/05/13 11:11:43;;;;;;;7.82;3.78;;;15.30;99.90;;;;;;5033279;28;20505;-75
2022/05/13 11:14:09;;;;;;;9.05;4.97;;;15.40;99.90;;;;;;5020035;28;20033;-75
2022/05/13 11:16:58;;;;;;;6.20;3.63;;;16.20;99.90;;;;;;5019518;28;20021;-75
2022/05/13 11:19:37;;;;;;;7.47;3.60;;;17.90;99.90;;;;;;5016625;28;20144;-76
2022/05/13 11:22:22;;;;;;;6.60;3.88;;;18.20;99.90;;;;;;5007937;28;20120;-73
2022/05/13 11:27:57;;;;;;;6.88;4.05;;;17.10;99.90;;;;;;5033442;28;20064;-76
2022/05/13 11:30:51;;;;;;;8.43;3.72;;;16.60;99.90;;;;;;5031746;28;20052;-77
2022/05/13 11:33:56;;;;;;;5.93;2.58;;;16.60;99.90;;;;;;5012714;28;20041;-76
2022/05/13 11:36:37;;;;;;;6.05;2.58;;;18.00;99.90;;;;;;4999190;28;20026;-75
2022/05/13 11:39:06;;;;;;;5.15;2.53;;;19.40;99.90;;;;;;5016739;28;20044;-76
2022/05/13 11:41:55;;;;;;;5.07;2.50;;;19.50;99.90;;;;;;5008943;28;20148;-76
2022/05/13 11:44:39;;;;;;;8.75;3.10;;;19.00;99.90;;;;;;5016974;28;20201;-75
2022/05/13 11:47:25;;;;;;;8.63;3.00;;;18.20;99.90;;;;;;5036514;28;20113;-76
2022/05/13 11:49:51;;;;;;;8.77;2.92;;;17.40;99.90;;;;;;5033727;28;20048;-76
2022/05/13 11:52:49;;;;;;;5.50;2.63;;;16.90;99.90;;;;;;5018155;28;20036;-76
2022/05/13 11:55:20;;;;;;;6.60;2.88;;;16.40;99.90;;;;;;4945959;28;20035;-76
2022/05/13 11:57:48;;;;;;;;;;;16.20;99.90;;;;;;4972479;28;20035;-74
2022/05/13 12:00:40;;;;;;;8.02;2.58;;;16.00;99.90;;;;;;4974612;28;20020;-75
2022/05/13 12:03:08;;;;;;;7.22;3.20;;;16.10;99.90;;;;;;4966293;28;20042;-74
2022/05/13 12:06:01;;;;;;;7.70;3.10;;;16.40;99.90;;;;;;4954579;28;20038;-75
2022/05/13 12:08:48;;;;;;;12.63;4.78;;;17.60;99.90;;;;;;4960609;28;20042;-76
2022/05/13 12:11:46;;;;;;;6.50;2.40;;;19.30;99.90;;;;;;4976621;28;20038;-76
2022/05/13 12:14:23;;;;;;;8.32;2.75;;;20.50;99.90;;;;;;4974109;28;20107;-75
2022/05/13 12:17:27;;;;;;;48.95;15.50;;;21.00;99.90;;;;;;4972256;28;20034;-73
2022/05/13 12:19:53;;;;;;;7.82;3.05;;;20.50;99.90;;;;;;4972628;28;20069;-76
2022/05/13 12:22:31;;;;;;;5.82;2.30;;;20.10;99.90;;;;;;4973982;28;20069;-76
2022/05/13 12:25:10;;;;;;;6.25;2.22;;;19.20;99.90;;;;;;4973579;28;20053;-73
2022/05/13 12:27:44;;;;;;;5.45;2.13;;;18.80;99.90;;;;;;4973428;28;20090;-74
2022/05/13 12:30:31;;;;;;;6.35;2.10;;;18.30;99.90;;;;;;4973164;28;20043;-76
2022/05/13 12:39:06;;;;;;;8.30;2.25;;;18.30;99.90;;;;;;5037845;28;20053;-75
2022/05/13 12:41:41;;;;;;;9.60;2.50;;;18.50;99.90;;;;;;5018327;28;20033;-76
2022/05/13 12:44:31;;;;;;;6.25;2.50;;;18.30;99.90;;;;;;5036396;28;20038;-75
2022/05/13 12:47:17;;;;;;;7.50;2.75;;;18.50;99.90;;;;;;5029463;28;20037;-78
2022/05/13 12:49:49;;;;;;;8.13;3.03;;;18.20;99.90;;;;;;5014399;28;20048;-76
2022/05/13 12:52:16;;;;;;;7.22;2.70;;;17.80;99.90;;;;;;5034005;28;20041;-75
2022/05/13 12:55:05;;;;;;;6.80;2.70;;;17.30;99.90;;;;;;5020434;28;20455;-78
2022/05/13 12:57:36;;;;;;;7.22;2.97;;;16.90;99.90;;;;;;5021795;28;20037;-75
2022/05/13 13:00:06;;;;;;;7.40;2.55;;;16.90;99.90;;;;;;5019469;28;20029;-76
2022/05/13 13:02:34;;;;;;;6.68;2.53;;;18.60;99.90;;;;;;5001624;28;20040;-75
2022/05/13 13:05:06;;;;;;;5.68;2.17;;;20.10;99.90;;;;;;5036724;28;20359;-77
2022/05/13 13:07:36;;;;;;;5.78;2.05;;;20.00;99.90;;;;;;5024371;28;20053;-76
2022/05/13 13:10:03;;;;;;;4.87;1.50;;;19.20;99.90;;;;;;5019484;28;20518;-75
2022/05/13 13:12:46;;;;;;;6.35;1.85;;;18.50;99.90;;;;;;5037585;28;20492;-74
2022/05/13 13:15:37;;;;;;;9.02;1.95;;;18.20;99.90;;;;;;5040914;28;20045;-77
2022/05/13 13:18:11;;;;;;;10.13;3.00;;;18.20;99.90;;;;;;5016079;28;20044;-74
2022/05/13 13:20:55;;;;;;;6.63;1.98;;;17.90;99.90;;;;;;5030028;28;20405;-77
2022/05/13 13:23:22;;;;;;;7.18;2.50;;;17.60;99.90;;;;;;5017581;28;20026;-76
2022/05/13 13:25:52;;;;;;;6.20;2.45;;;18.00;99.90;;;;;;5023254;28;20386;-77
2022/05/13 13:28:25;;;;;;;5.07;1.83;;;19.40;99.90;;;;;;5035372;28;20033;-75
2022/05/13 13:30:57;;;;;;;5.45;2.35;;;20.20;99.90;;;;;;5018333;28;20025;-77
2022/05/13 13:33:32;;;;;;;4.53;2.35;;;20.00;98.20;;;;;;5030487;28;20037;-77
2022/05/13 13:36:08;;;;;;;7.03;2.28;;;19.50;98.30;;;;;;5029768;28;20021;-76
2022/05/13 13:38:34;;;;;;;4.65;1.70;;;18.90;98.30;;;;;;5017211;28;20083;-77
2022/05/13 13:41:00;;;;;;;6.07;2.38;;;18.50;98.80;;;;;;5022489;28;20033;-77